createdAt,value
2023-03-08T00:02:24.528Z,68.30
2023-03-08T00:04:55.533Z,68.70
2023-03-08T00:07:23.412Z,68.40
2023-03-08T00:09:50.582Z,68.40
2023-03-08T00:12:19.374Z,68.60
2023-03-08T00:14:46.443Z,68.80
2023-03-08T00:17:13.347Z,68.70
2023-03-08T00:19:40.212Z,68.60
2023-03-08T00:22:07.510Z,68.80
2023-03-08T00:24:34.420Z,68.80
2023-03-08T00:27:01.617Z,69.00
2023-03-08T00:29:28.558Z,69.00
2023-03-08T00:31:55.447Z,68.90
2023-03-08T00:34:22.497Z,69.30
2023-03-08T00:36:50.519Z,69.10
2023-03-08T00:39:18.732Z,69.10
2023-03-08T00:41:45.547Z,69.10
2023-03-08T00:44:12.545Z,69.40
2023-03-08T00:46:39.413Z,69.40
2023-03-08T00:49:06.454Z,69.50
2023-03-08T00:51:33.321Z,69.80
2023-03-08T00:54:00.212Z,69.80
2023-03-08T00:56:27.757Z,69.90
2023-03-08T00:58:54.657Z,70.60
2023-03-08T01:01:21.749Z,70.50
2023-03-08T01:03:48.903Z,70.60
2023-03-08T01:06:18.169Z,70.70
2023-03-08T01:08:45.390Z,70.30
2023-03-08T01:11:26.965Z,70.60
2023-03-08T01:13:54.689Z,70.70
2023-03-08T01:16:28.038Z,70.60
2023-03-08T01:18:55.562Z,70.70
2023-03-08T01:21:23.104Z,70.70
2023-03-08T01:23:50.953Z,70.90
2023-03-08T01:26:23.749Z,70.50
2023-03-08T01:28:52.747Z,70.80
2023-03-08T01:31:25.168Z,70.80
2023-03-08T01:33:52.757Z,71.20
2023-03-08T01:36:22.141Z,71.10
2023-03-08T01:38:49.471Z,71.00
2023-03-08T01:41:25.513Z,71.10
2023-03-08T01:43:53.013Z,71.20
2023-03-08T01:46:22.711Z,71.20
2023-03-08T01:48:49.500Z,71.10
2023-03-08T01:51:20.500Z,71.60
2023-03-08T01:53:48.008Z,71.10
2023-03-08T01:56:18.418Z,71.00
2023-03-08T01:58:48.904Z,71.30
2023-03-08T02:01:16.045Z,71.10
2023-03-08T02:03:42.979Z,71.10
2023-03-08T02:06:10.221Z,71.20
2023-03-08T02:08:37.227Z,71.30
2023-03-08T02:11:05.714Z,71.20
2023-03-08T02:13:32.834Z,71.30
2023-03-08T02:16:02.711Z,71.30
2023-03-08T02:18:29.638Z,71.30
2023-03-08T02:20:56.595Z,71.50
2023-03-08T02:23:25.881Z,71.20
2023-03-08T02:26:00.715Z,71.30
2023-03-08T02:28:30.092Z,71.40
2023-03-08T02:30:57.908Z,71.30
2023-03-08T02:33:24.977Z,71.50
2023-03-08T02:35:52.694Z,71.30
2023-03-08T02:38:21.502Z,71.40
2023-03-08T02:40:51.542Z,71.80
2023-03-08T02:43:19.404Z,71.40
2023-03-08T02:45:46.519Z,72.00
2023-03-08T02:48:13.750Z,71.60
2023-03-08T02:50:40.799Z,71.40
2023-03-08T02:53:07.793Z,71.80
2023-03-08T02:55:39.976Z,71.30
2023-03-08T02:58:08.602Z,71.30
2023-03-08T03:00:36.472Z,71.00
2023-03-08T03:03:03.525Z,71.00
2023-03-08T03:05:30.405Z,71.10
2023-03-08T03:07:58.749Z,71.20
2023-03-08T03:10:25.975Z,71.30
2023-03-08T03:12:53.305Z,71.60
2023-03-08T03:15:20.333Z,71.60
2023-03-08T03:17:47.348Z,72.20
2023-03-08T03:20:15.435Z,72.40
2023-03-08T03:22:42.329Z,72.40
2023-03-08T03:25:09.460Z,73.40
2023-03-08T03:27:36.582Z,74.20
2023-03-08T03:30:05.579Z,75.60
2023-03-08T03:32:32.641Z,76.30
2023-03-08T03:34:59.551Z,75.60
2023-03-08T03:37:26.524Z,75.10
2023-03-08T03:39:53.442Z,74.80
2023-03-08T03:42:20.428Z,74.70
2023-03-08T03:44:47.463Z,74.40
2023-03-08T03:47:14.382Z,74.30
2023-03-08T03:49:41.315Z,73.50
2023-03-08T03:52:08.261Z,72.90
2023-03-08T03:54:35.378Z,73.00
2023-03-08T03:57:02.252Z,72.90
2023-03-08T03:59:29.176Z,73.10
2023-03-08T04:01:56.038Z,72.90
2023-03-08T04:04:23.164Z,72.60
2023-03-08T04:06:50.149Z,72.30
2023-03-08T04:09:18.839Z,72.20
2023-03-08T04:11:47.002Z,72.00
2023-03-08T04:14:14.034Z,72.00
2023-03-08T04:16:41.142Z,72.10
2023-03-08T04:19:12.164Z,72.00
2023-03-08T04:21:39.520Z,71.10
2023-03-08T04:24:06.893Z,71.30
2023-03-08T04:26:33.994Z,71.80
2023-03-08T04:29:03.162Z,71.40
2023-03-08T04:31:30.330Z,71.40
2023-03-08T04:33:58.515Z,71.30
2023-03-08T04:36:25.557Z,71.30
2023-03-08T04:38:52.828Z,71.00
2023-03-08T04:41:19.943Z,71.50
2023-03-08T04:43:53.191Z,71.40
2023-03-08T04:46:22.367Z,71.20
2023-03-08T04:48:49.780Z,71.40
2023-03-08T04:51:17.422Z,71.00
2023-03-08T04:53:45.544Z,71.40
2023-03-08T04:56:14.023Z,70.80
2023-03-08T04:58:41.807Z,71.60
2023-03-08T05:01:13.794Z,71.70
2023-03-08T05:03:41.463Z,71.80
2023-03-08T05:06:09.014Z,71.40
2023-03-08T05:08:35.983Z,71.50
2023-03-08T05:11:04.798Z,71.20
2023-03-08T05:13:37.632Z,71.10
2023-03-08T05:16:07.382Z,71.90
2023-03-08T05:18:36.861Z,72.20
2023-03-08T05:21:06.844Z,72.20
2023-03-08T05:23:36.270Z,72.40
2023-03-08T05:26:05.319Z,72.70
2023-03-08T05:28:33.921Z,72.80
2023-03-08T05:31:23.783Z,73.00
2023-03-08T05:33:51.898Z,74.10
2023-03-08T05:36:20.707Z,73.20
2023-03-08T05:38:48.233Z,73.30
2023-03-08T05:41:16.555Z,73.10
2023-03-08T05:43:43.797Z,73.40
2023-03-08T05:46:16.624Z,73.50
2023-03-08T05:48:43.880Z,73.60
2023-03-08T05:51:16.261Z,73.40
2023-03-08T05:53:43.623Z,73.80
2023-03-08T05:56:18.636Z,73.50
2023-03-08T05:58:48.045Z,73.50
2023-03-08T06:01:18.085Z,73.40
2023-03-08T06:03:49.502Z,74.00
2023-03-08T06:06:17.018Z,73.70
2023-03-08T06:08:45.274Z,73.90
2023-03-08T06:11:13.184Z,74.20
2023-03-08T06:13:40.481Z,74.30
2023-03-08T06:16:07.774Z,73.60
2023-03-08T06:18:36.969Z,74.00
2023-03-08T06:21:07.181Z,73.90
2023-03-08T06:23:35.906Z,74.70
2023-03-08T06:26:04.962Z,74.90
2023-03-08T06:28:32.399Z,74.50
2023-03-08T06:31:00.137Z,74.90
2023-03-08T06:33:30.148Z,75.60
2023-03-08T06:36:01.459Z,75.80
2023-03-08T06:38:31.317Z,75.40
2023-03-08T06:41:00.226Z,74.90
2023-03-08T06:43:27.888Z,75.00
2023-03-08T06:45:55.067Z,75.60
2023-03-08T06:48:22.073Z,75.20
2023-03-08T06:50:49.003Z,75.40
2023-03-08T06:53:16.291Z,75.70
2023-03-08T06:55:43.251Z,75.80
2023-03-08T06:58:10.219Z,75.30
2023-03-08T07:00:37.550Z,75.40
2023-03-08T07:03:04.580Z,75.30
2023-03-08T07:05:31.534Z,75.00
2023-03-08T07:07:58.794Z,75.20
2023-03-08T07:10:25.689Z,75.60
2023-03-08T07:12:52.753Z,75.70
2023-03-08T07:15:22.076Z,75.90
2023-03-08T07:17:50.744Z,76.00
2023-03-08T07:20:19.612Z,75.60
2023-03-08T07:22:47.030Z,75.60
2023-03-08T07:25:15.497Z,76.10
2023-03-08T07:27:42.833Z,75.80
2023-03-08T07:30:11.984Z,76.30
2023-03-08T07:32:45.404Z,76.50
2023-03-08T07:35:16.388Z,76.00
2023-03-08T07:37:47.629Z,76.50
2023-03-08T07:40:16.725Z,77.20
2023-03-08T07:42:44.547Z,77.40
2023-03-08T07:45:12.551Z,76.30
2023-03-08T07:47:40.725Z,76.30
2023-03-08T07:50:09.257Z,76.10
2023-03-08T07:52:36.187Z,76.70
2023-03-08T07:55:03.383Z,76.70
2023-03-08T07:57:30.287Z,76.40
2023-03-08T07:59:57.118Z,75.70
2023-03-08T08:02:24.074Z,76.50
2023-03-08T08:04:51.000Z,75.40
2023-03-08T08:07:18.008Z,73.80
2023-03-08T08:09:47.178Z,74.00
2023-03-08T08:12:14.178Z,73.60
2023-03-08T08:14:41.096Z,74.00
2023-03-08T08:17:08.028Z,74.20
2023-03-08T08:19:35.010Z,73.90
2023-03-08T08:22:02.025Z,68.30
2023-03-08T08:24:29.204Z,67.70
2023-03-08T08:26:56.059Z,66.10
2023-03-08T08:29:23.150Z,67.20
2023-03-08T08:31:52.765Z,65.90
2023-03-08T08:34:20.582Z,66.40
2023-03-08T08:36:47.462Z,67.10
2023-03-08T08:39:14.506Z,66.20
2023-03-08T08:41:41.431Z,66.00
2023-03-08T08:44:08.430Z,66.90
2023-03-08T08:46:35.476Z,67.00
2023-03-08T08:49:05.459Z,67.20
2023-03-08T08:51:33.066Z,66.80
2023-03-08T08:54:00.103Z,65.90
2023-03-08T08:56:28.896Z,66.90
2023-03-08T08:58:57.538Z,67.00
2023-03-08T09:01:31.577Z,66.50
2023-03-08T09:03:59.412Z,65.40
2023-03-08T09:06:27.518Z,64.60
2023-03-08T09:08:57.625Z,64.60
2023-03-08T09:11:26.507Z,64.50
2023-03-08T09:13:54.096Z,64.80
2023-03-08T09:16:29.745Z,64.90
2023-03-08T09:18:57.972Z,64.90
2023-03-08T09:21:26.039Z,64.50
2023-03-08T09:23:53.352Z,64.10
2023-03-08T09:26:20.295Z,64.10
2023-03-08T09:28:47.367Z,63.80
2023-03-08T09:31:19.478Z,64.10
2023-03-08T09:33:49.381Z,63.70
2023-03-08T09:36:16.665Z,63.20
2023-03-08T09:38:43.633Z,63.10
2023-03-08T09:41:25.877Z,63.50
2023-03-08T09:44:29.914Z,63.60
2023-03-08T09:47:11.428Z,63.40
2023-03-08T09:49:42.181Z,63.40
2023-03-08T09:52:31.819Z,63.50
2023-03-08T09:55:04.517Z,63.20
2023-03-08T09:57:39.176Z,63.00
2023-03-08T10:00:17.447Z,62.70
2023-03-08T10:02:59.094Z,62.60
2023-03-08T10:06:07.308Z,62.80
2023-03-08T10:08:45.655Z,62.50
2023-03-08T10:11:24.237Z,62.70
2023-03-08T10:13:55.678Z,62.50
2023-03-08T10:16:25.156Z,62.00
2023-03-08T10:18:58.844Z,62.20
2023-03-08T10:21:28.068Z,61.80
2023-03-08T10:24:16.364Z,61.50
2023-03-08T10:26:44.934Z,61.60
2023-03-08T10:29:13.578Z,61.30
2023-03-08T10:31:43.775Z,61.20
2023-03-08T10:34:19.479Z,61.10
2023-03-08T10:37:07.526Z,61.00
2023-03-08T10:39:37.097Z,60.90
2023-03-08T10:42:16.382Z,60.70
2023-03-08T10:44:55.842Z,60.70
2023-03-08T10:47:32.340Z,60.50
2023-03-08T10:50:20.669Z,60.40
2023-03-08T10:52:49.503Z,60.50
2023-03-08T10:55:19.032Z,60.50
2023-03-08T10:57:55.989Z,60.30
2023-03-08T11:00:23.113Z,60.40
2023-03-08T11:02:50.179Z,60.60
2023-03-08T11:05:26.909Z,60.70
2023-03-08T11:07:56.665Z,60.60
2023-03-08T11:10:29.220Z,60.20
2023-03-08T11:13:18.712Z,60.20
2023-03-08T11:16:10.307Z,58.30
2023-03-08T11:19:17.422Z,58.10
2023-03-08T11:21:47.089Z,58.10
2023-03-08T11:24:40.218Z,58.20
2023-03-08T11:27:44.328Z,58.30
2023-03-08T11:30:39.117Z,58.40
2023-03-08T11:33:42.110Z,58.60
2023-03-08T11:36:16.813Z,58.60
2023-03-08T11:38:51.930Z,58.80
2023-03-08T11:41:39.866Z,57.80
2023-03-08T11:44:24.572Z,57.40
2023-03-08T11:47:18.588Z,57.20
2023-03-08T11:50:06.353Z,57.20
2023-03-08T11:52:50.469Z,57.10
2023-03-08T11:55:20.966Z,57.10
2023-03-08T11:57:56.921Z,57.20
2023-03-08T12:00:30.716Z,57.30
2023-03-08T12:03:04.800Z,57.30
2023-03-08T12:05:38.591Z,57.40
2023-03-08T12:08:30.734Z,57.50
2023-03-08T12:11:22.478Z,57.50
2023-03-08T12:13:55.663Z,57.50
2023-03-08T12:16:32.653Z,57.60
2023-03-08T12:19:06.747Z,57.70
2023-03-08T12:21:40.831Z,57.70
2023-03-08T12:24:38.673Z,57.70
2023-03-08T12:27:14.069Z,57.70
2023-03-08T12:29:50.731Z,57.70
2023-03-08T12:32:19.442Z,57.80
2023-03-08T12:34:48.252Z,57.70
2023-03-08T12:37:25.726Z,57.80
2023-03-08T12:39:59.652Z,57.90
2023-03-08T12:42:39.968Z,57.90
2023-03-08T12:45:24.713Z,57.90
2023-03-08T12:48:25.542Z,57.90
2023-03-08T12:51:16.976Z,57.90
2023-03-08T12:53:56.195Z,57.90
2023-03-08T12:56:31.686Z,58.00
2023-03-08T12:59:15.470Z,58.00
2023-03-08T13:01:59.438Z,58.00
2023-03-08T13:04:42.465Z,58.10
2023-03-08T13:07:20.472Z,58.20
2023-03-08T13:09:59.582Z,58.10
2023-03-08T13:12:57.400Z,58.20
2023-03-08T13:15:26.696Z,58.20
2023-03-08T13:18:11.415Z,58.20
2023-03-08T13:20:43.251Z,58.10
2023-03-08T13:23:16.108Z,58.10
2023-03-08T13:26:07.453Z,58.20
2023-03-08T13:28:47.218Z,58.40
2023-03-08T13:31:21.001Z,58.40
2023-03-08T13:33:51.302Z,58.40
2023-03-08T13:36:28.318Z,58.40
2023-03-08T13:39:08.486Z,58.50
2023-03-08T13:41:41.074Z,58.50
2023-03-08T13:44:24.649Z,58.60
2023-03-08T13:46:54.828Z,58.60
2023-03-08T13:49:29.467Z,58.60
2023-03-08T13:51:58.970Z,58.60
2023-03-08T13:54:29.810Z,58.70
2023-03-08T13:57:02.851Z,58.70
2023-03-08T13:59:30.470Z,58.80
2023-03-08T14:01:57.531Z,58.80
2023-03-08T14:04:27.285Z,58.90
2023-03-08T14:06:56.974Z,59.00
2023-03-08T14:09:25.915Z,59.00
2023-03-08T14:12:07.413Z,59.00
2023-03-08T14:14:40.681Z,59.20
2023-03-08T14:17:15.567Z,58.80
2023-03-08T14:19:42.717Z,58.30
2023-03-08T14:22:14.215Z,58.20
2023-03-08T14:24:44.171Z,58.30
2023-03-08T14:27:14.083Z,58.60
2023-03-08T14:29:42.611Z,58.40
2023-03-08T14:32:12.740Z,58.40
2023-03-08T14:34:39.879Z,58.50
2023-03-08T14:37:11.332Z,58.20
2023-03-08T14:39:45.800Z,58.20
2023-03-08T14:42:30.578Z,58.50
2023-03-08T14:45:05.121Z,58.40
2023-03-08T14:47:34.576Z,58.40
2023-03-08T14:50:24.251Z,58.60
2023-03-08T14:52:54.513Z,58.40
2023-03-08T14:55:23.463Z,58.50
2023-03-08T14:57:58.122Z,58.60
2023-03-08T15:00:27.721Z,58.50
2023-03-08T15:02:55.809Z,58.60
2023-03-08T15:05:29.203Z,58.60
2023-03-08T15:07:59.134Z,58.50
2023-03-08T15:10:37.431Z,58.50
2023-03-08T15:13:08.233Z,58.40
2023-03-08T15:15:35.063Z,58.40
2023-03-08T15:18:02.038Z,58.40
2023-03-08T15:20:29.126Z,58.40
2023-03-08T15:23:00.066Z,58.40
2023-03-08T15:25:34.020Z,58.50
2023-03-08T15:28:01.062Z,58.30
2023-03-08T15:30:29.555Z,58.40
2023-03-08T15:32:59.435Z,58.50
2023-03-08T15:35:26.524Z,58.60
2023-03-08T15:37:53.423Z,58.50
2023-03-08T15:40:24.168Z,58.70
2023-03-08T15:42:51.277Z,58.70
2023-03-08T15:45:18.156Z,58.90
2023-03-08T15:47:54.978Z,58.90
2023-03-08T15:50:21.915Z,59.20
2023-03-08T15:52:50.114Z,59.00
2023-03-08T15:55:17.179Z,59.30
2023-03-08T15:57:44.127Z,59.50
2023-03-08T16:00:13.471Z,59.40
2023-03-08T16:02:40.802Z,60.00
2023-03-08T16:05:09.973Z,60.00
2023-03-08T16:07:37.046Z,60.30
2023-03-08T16:10:06.578Z,59.80
2023-03-08T16:12:33.511Z,60.00
2023-03-08T16:15:00.471Z,60.00
2023-03-08T16:17:30.144Z,60.50
2023-03-08T16:19:57.084Z,59.80
2023-03-08T16:22:24.283Z,60.00
2023-03-08T16:24:51.183Z,59.80
2023-03-08T16:27:18.061Z,59.70
2023-03-08T16:29:44.973Z,60.00
2023-03-08T16:32:15.138Z,60.30
2023-03-08T16:34:42.127Z,59.80
2023-03-08T16:37:08.982Z,59.80
2023-03-08T16:39:36.161Z,60.60
2023-03-08T16:42:03.070Z,60.10
2023-03-08T16:44:30.803Z,60.60
2023-03-08T16:46:57.797Z,60.40
2023-03-08T16:49:28.400Z,60.80
2023-03-08T16:51:56.389Z,60.70
2023-03-08T16:54:24.003Z,61.10
2023-03-08T16:56:50.923Z,61.30
2023-03-08T16:59:18.123Z,61.40
2023-03-08T17:01:47.440Z,61.30
2023-03-08T17:04:14.628Z,61.60
2023-03-08T17:06:44.026Z,61.00
2023-03-08T17:09:12.007Z,60.90
2023-03-08T17:11:39.547Z,61.70
2023-03-08T17:14:10.065Z,61.30
2023-03-08T17:16:37.615Z,61.20
2023-03-08T17:19:06.944Z,60.70
2023-03-08T17:21:38.509Z,60.90
2023-03-08T17:24:07.639Z,60.90
2023-03-08T17:26:36.341Z,60.80
2023-03-08T17:29:03.546Z,60.50
2023-03-08T17:31:30.535Z,60.80
2023-03-08T17:33:57.433Z,60.80
2023-03-08T17:36:25.419Z,60.30
2023-03-08T17:38:53.623Z,60.40
2023-03-08T17:41:21.440Z,60.50
2023-03-08T17:43:48.640Z,60.80
2023-03-08T17:46:24.313Z,60.90
2023-03-08T17:48:53.243Z,60.50
2023-03-08T17:51:23.120Z,60.30
2023-03-08T17:53:50.708Z,60.20
2023-03-08T17:56:26.617Z,60.30
2023-03-08T17:58:54.699Z,60.20
2023-03-08T18:01:24.415Z,60.20
2023-03-08T18:03:52.383Z,60.30
2023-03-08T18:06:30.132Z,60.30
2023-03-08T18:08:58.265Z,60.50
2023-03-08T18:11:25.743Z,60.30
2023-03-08T18:13:53.371Z,60.10
2023-03-08T18:16:21.929Z,60.40
2023-03-08T18:18:50.085Z,60.40
2023-03-08T18:21:20.952Z,60.30
2023-03-08T18:23:48.590Z,60.10
2023-03-08T18:26:17.097Z,60.30
2023-03-08T18:28:44.078Z,60.50
2023-03-08T18:31:14.831Z,60.20
2023-03-08T18:33:41.835Z,60.60
2023-03-08T18:36:09.178Z,60.50
2023-03-08T18:38:36.330Z,60.60
2023-03-08T18:41:17.749Z,61.00
2023-03-08T18:43:46.383Z,60.60
2023-03-08T18:46:14.570Z,60.70
2023-03-08T18:48:42.533Z,60.60
2023-03-08T18:51:09.664Z,60.50
2023-03-08T18:53:37.225Z,60.40
2023-03-08T18:56:05.072Z,60.60
2023-03-08T18:58:32.693Z,60.50
2023-03-08T19:01:02.757Z,60.40
2023-03-08T19:03:30.688Z,60.40
2023-03-08T19:06:02.416Z,60.40
2023-03-08T19:08:29.420Z,60.50
2023-03-08T19:10:56.469Z,60.40
2023-03-08T19:13:23.411Z,60.60
2023-03-08T19:15:50.398Z,60.70
2023-03-08T19:18:17.331Z,60.80
2023-03-08T19:20:44.176Z,60.40
2023-03-08T19:23:12.182Z,61.20
2023-03-08T19:25:57.593Z,60.60
2023-03-08T19:28:24.540Z,60.70
2023-03-08T19:30:51.424Z,60.60
2023-03-08T19:33:30.549Z,60.30
2023-03-08T19:35:58.300Z,60.40
2023-03-08T19:38:25.243Z,60.40
2023-03-08T19:40:52.081Z,60.30
2023-03-08T19:43:19.095Z,60.30
2023-03-08T19:45:51.746Z,60.40
2023-03-08T19:48:18.752Z,60.30
2023-03-08T19:50:46.605Z,60.50
2023-03-08T19:53:13.667Z,60.30
2023-03-08T19:55:52.204Z,60.20
2023-03-08T19:58:20.236Z,60.20
2023-03-08T20:00:47.924Z,60.10
2023-03-08T20:03:17.092Z,60.10
2023-03-08T20:05:46.561Z,60.10
2023-03-08T20:08:14.439Z,60.10
2023-03-08T20:10:41.569Z,60.20
2023-03-08T20:13:08.734Z,60.10
2023-03-08T20:15:35.942Z,60.10
2023-03-08T20:18:04.335Z,60.20
2023-03-08T20:20:33.405Z,60.10
2023-03-08T20:23:00.379Z,60.10
2023-03-08T20:25:27.564Z,60.10
2023-03-08T20:27:55.041Z,60.10
2023-03-08T20:30:22.972Z,60.10
2023-03-08T20:32:53.337Z,60.10
2023-03-08T20:35:22.166Z,60.10
2023-03-08T20:37:50.912Z,60.00
2023-03-08T20:40:18.319Z,59.80
2023-03-08T20:42:45.540Z,59.30
2023-03-08T20:45:12.995Z,59.10
2023-03-08T20:47:40.396Z,59.10
2023-03-08T20:50:07.854Z,59.00
2023-03-08T20:52:34.971Z,59.10
2023-03-08T20:55:01.942Z,59.10
2023-03-08T20:57:30.452Z,59.10
2023-03-08T20:59:57.483Z,59.10
2023-03-08T21:02:24.452Z,59.10
2023-03-08T21:04:51.864Z,58.90
2023-03-08T21:07:18.901Z,59.00
2023-03-08T21:09:46.065Z,58.80
2023-03-08T21:12:13.049Z,58.80
2023-03-08T21:14:40.312Z,58.90
2023-03-08T21:17:08.531Z,59.00
2023-03-08T21:19:37.261Z,59.20
2023-03-08T21:22:05.457Z,59.20
2023-03-08T21:24:32.615Z,59.20
2023-03-08T21:26:59.782Z,59.10
2023-03-08T21:29:28.301Z,59.10
2023-03-08T21:31:55.455Z,59.20
2023-03-08T21:34:22.862Z,59.10
2023-03-08T21:36:49.942Z,59.20
2023-03-08T21:39:17.364Z,59.10
2023-03-08T21:41:46.570Z,59.10
2023-03-08T21:44:17.996Z,59.10
2023-03-08T21:46:46.677Z,59.10
2023-03-08T21:49:28.109Z,59.10
2023-03-08T21:51:56.901Z,59.10
2023-03-08T21:54:25.840Z,59.10
2023-03-08T21:56:52.925Z,59.10
2023-03-08T21:59:24.188Z,59.10
2023-03-08T22:01:54.142Z,59.10
2023-03-08T22:04:21.529Z,59.10
2023-03-08T22:06:48.424Z,59.10
2023-03-08T22:09:15.356Z,58.90
2023-03-08T22:11:42.365Z,59.00
2023-03-08T22:14:10.550Z,59.00
2023-03-08T22:16:39.882Z,59.00
2023-03-08T22:19:07.398Z,59.10
2023-03-08T22:21:34.328Z,59.00
2023-03-08T22:24:02.981Z,59.10
2023-03-08T22:26:30.528Z,59.10
2023-03-08T22:28:58.127Z,59.10
2023-03-08T22:31:26.791Z,59.10
2023-03-08T22:33:54.120Z,59.10
2023-03-08T22:36:22.612Z,59.10
2023-03-08T22:38:49.717Z,59.10
2023-03-08T22:41:27.688Z,59.10
2023-03-08T22:43:54.955Z,59.10
2023-03-08T22:46:28.020Z,59.10
2023-03-08T22:48:57.657Z,75.60
2023-03-08T22:51:25.685Z,75.20
2023-03-08T22:53:52.546Z,76.10
2023-03-08T22:56:30.407Z,82.70
2023-03-08T22:58:57.999Z,75.30
2023-03-08T23:01:25.669Z,75.70
2023-03-08T23:03:58.118Z,76.80
2023-03-08T23:06:28.487Z,75.30
2023-03-08T23:08:57.260Z,78.30
2023-03-08T23:11:24.445Z,73.10
2023-03-08T23:13:51.582Z,73.60
2023-03-08T23:16:19.437Z,73.10
2023-03-08T23:18:49.818Z,73.60
2023-03-08T23:21:21.334Z,72.60
2023-03-08T23:23:48.503Z,72.90
2023-03-08T23:26:19.370Z,72.00
2023-03-08T23:28:46.730Z,71.80
2023-03-08T23:31:19.306Z,71.30
2023-03-08T23:33:46.310Z,70.90
2023-03-08T23:36:15.502Z,70.70
2023-03-08T23:38:42.613Z,70.30
2023-03-08T23:41:11.500Z,70.40
2023-03-08T23:43:38.715Z,70.40
2023-03-08T23:46:17.901Z,70.30
2023-03-08T23:48:46.524Z,70.50
2023-03-08T23:51:17.086Z,70.60
2023-03-08T23:53:44.701Z,70.70
2023-03-08T23:56:27.061Z,70.90
2023-03-08T23:58:58.469Z,71.50
